Time;durP1;ratioP1;P1;durP2;ratioP2;P2;SDS_P1;SDS_P2;PMS_P1;PMS_P2;Temp;Humidity;BMP_temperature;BMP_pressure;BME280_temperature;BME280_humidity;BME280_pressure;Samples;Min_cycle;Max_cycle;Signal;HPM_P1;HPM_P2
2021/12/27 00:01:23;;;;;;;16.65;11.57;;;;;;;;;;5005205;28;20045;-81
2021/12/27 00:03:51;;;;;;;19.05;11.75;;;;;;;;;;5011943;28;20053;-82
2021/12/27 00:06:18;;;;;;;17.98;11.88;;;;;;;;;;5016719;28;20042;-82
2021/12/27 00:08:44;;;;;;;15.70;10.52;;;;;;;;;;5013355;28;20409;-82
2021/12/27 00:11:11;;;;;;;15.90;10.80;;;;;;;;;;5007413;28;20045;-83
2021/12/27 00:13:37;;;;;;;17.95;11.45;;;;;;;;;;5012912;28;20042;-81
2021/12/27 00:16:03;;;;;;;17.95;12.02;;;;;;;;;;5006355;28;20525;-81
2021/12/27 00:18:30;;;;;;;17.38;10.90;;;;;;;;;;5005719;28;20037;-82
2021/12/27 00:20:56;;;;;;;17.15;11.30;;;;;;;;;;5005458;28;20072;-82
2021/12/27 00:23:23;;;;;;;17.58;12.10;;;;;;;;;;5012348;28;20046;-81
2021/12/27 00:25:50;;;;;;;17.65;11.23;;;;;;;;;;5002459;28;20046;-83
2021/12/27 00:28:16;;;;;;;17.92;13.20;;;;;;;;;;4997692;28;20060;-81
2021/12/27 00:30:42;;;;;;;18.58;12.15;;;;;;;;;;5014888;28;20064;-82
2021/12/27 00:33:08;;;;;;;20.33;13.23;;;;;;;;;;5021605;28;20042;-82
2021/12/27 00:35:36;;;;;;;18.58;12.95;;;;;;;;;;5027634;28;20069;-81
2021/12/27 00:38:03;;;;;;;17.25;11.80;;;;;;;;;;5034465;28;20062;-82
2021/12/27 00:40:29;;;;;;;19.83;12.95;;;;;;;;;;5023031;28;20068;-81
2021/12/27 00:42:55;;;;;;;18.08;12.35;;;;;;;;;;5019903;28;20041;-82
2021/12/27 00:45:21;;;;;;;22.90;13.20;;;;;;;;;;5023557;28;20049;-82
2021/12/27 00:47:47;;;;;;;17.52;12.60;;;;;;;;;;5018950;28;20042;-82
2021/12/27 00:50:14;;;;;;;19.95;12.55;;;;;;;;;;5008280;28;20378;-81
2021/12/27 00:52:40;;;;;;;17.23;12.48;;;;;;;;;;5011477;28;20052;-81
2021/12/27 00:55:08;;;;;;;17.63;13.73;;;;;;;;;;5009624;28;20037;-81
2021/12/27 00:57:34;;;;;;;20.58;12.27;;;;;;;;;;5013152;28;20041;-81
2021/12/27 01:00:00;;;;;;;18.40;12.23;;;;;;;;;;5014793;28;20037;-82
2021/12/27 01:02:26;;;;;;;23.58;13.68;;;;;;;;;;5014552;28;20053;-81
2021/12/27 01:04:52;;;;;;;20.35;13.20;;;;;;;;;;5008169;28;20245;-81
2021/12/27 01:07:18;;;;;;;18.88;12.40;;;;;;;;;;5016852;28;20042;-81
2021/12/27 01:10:05;;;;;;;21.48;13.32;;;;;;;;;;5016483;28;20490;-81
2021/12/27 01:12:47;;;;;;;20.38;13.57;;;;;;;;;;5021374;28;20116;-82
2021/12/27 01:17:58;;;;;;;22.42;13.50;;;;;;;;;;5015047;28;20103;-80
2021/12/27 01:20:25;;;;;;;20.67;13.95;;;;;;;;;;5022523;28;20042;-82
2021/12/27 01:22:52;;;;;;;22.23;13.15;;;;;;;;;;5031326;28;20042;-83
2021/12/27 01:25:18;;;;;;;22.58;14.25;;;;;;;;;;5025831;28;20458;-83
2021/12/27 01:27:44;;;;;;;26.55;14.18;;;;;;;;;;5016426;28;20140;-82
2021/12/27 01:30:15;;;;;;;26.90;15.65;;;;;;;;;;5015210;28;20501;-82
2021/12/27 01:32:47;;;;;;;23.42;15.48;;;;;;;;;;5013910;28;20092;-82
2021/12/27 01:35:13;;;;;;;23.70;13.95;;;;;;;;;;5015089;28;20076;-81
2021/12/27 01:37:40;;;;;;;20.45;13.75;;;;;;;;;;5020124;28;20591;-80
2021/12/27 01:40:13;;;;;;;24.67;14.50;;;;;;;;;;5015587;28;20068;-82
2021/12/27 01:42:59;;;;;;;22.85;12.55;;;;;;;;;;5011952;28;20088;-83
2021/12/27 01:45:25;;;;;;;24.90;15.30;;;;;;;;;;5015119;28;20103;-82
2021/12/27 01:47:51;;;;;;;24.05;14.75;;;;;;;;;;5014456;28;20037;-81
2021/12/27 01:50:17;;;;;;;20.95;13.35;;;;;;;;;;5028417;28;20045;-81
2021/12/27 01:52:43;;;;;;;22.33;13.52;;;;;;;;;;5036768;28;20045;-80
2021/12/27 01:55:15;;;;;;;22.58;13.23;;;;;;;;;;5030396;28;20044;-81
2021/12/27 01:57:41;;;;;;;22.50;14.88;;;;;;;;;;5028999;28;20568;-84
2021/12/27 02:00:08;;;;;;;22.77;13.60;;;;;;;;;;5022157;28;20161;-84
2021/12/27 02:02:34;;;;;;;21.42;14.00;;;;;;;;;;5028464;28;20041;-82
2021/12/27 02:05:00;;;;;;;22.13;14.95;;;;;;;;;;5023110;28;20375;-83
2021/12/27 02:07:26;;;;;;;23.45;14.95;;;;;;;;;;5018924;28;20038;-81
2021/12/27 02:10:02;;;;;;;21.10;14.05;;;;;;;;;;5002786;28;20119;-82
2021/12/27 02:12:32;;;;;;;19.90;14.13;;;;;;;;;;5024307;28;20045;-83
2021/12/27 02:14:58;;;;;;;19.77;13.88;;;;;;;;;;5017954;28;20053;-83
2021/12/27 02:17:25;;;;;;;21.33;13.50;;;;;;;;;;5010858;28;20045;-82
2021/12/27 02:19:54;;;;;;;20.77;13.75;;;;;;;;;;5015434;28;20053;-83
2021/12/27 02:22:21;;;;;;;21.08;14.90;;;;;;;;;;5010710;28;20493;-82
2021/12/27 02:24:48;;;;;;;18.63;13.13;;;;;;;;;;5015412;28;20136;-81
2021/12/27 02:27:15;;;;;;;19.30;13.30;;;;;;;;;;5014740;28;20041;-79
2021/12/27 02:29:42;;;;;;;20.38;14.25;;;;;;;;;;4998885;28;20422;-81
2021/12/27 02:32:08;;;;;;;21.15;14.55;;;;;;;;;;5034467;28;20104;-79
2021/12/27 02:34:34;;;;;;;24.67;15.27;;;;;;;;;;5021639;28;20052;-79
2021/12/27 02:37:01;;;;;;;23.88;15.73;;;;;;;;;;5012833;28;20034;-82
2021/12/27 02:39:29;;;;;;;21.58;15.45;;;;;;;;;;5000972;28;20124;-81
2021/12/27 02:41:55;;;;;;;23.20;16.48;;;;;;;;;;5000508;28;20050;-81
2021/12/27 02:44:21;;;;;;;25.55;16.33;;;;;;;;;;4996128;28;20395;-80
2021/12/27 02:46:47;;;;;;;21.95;14.57;;;;;;;;;;4986537;28;20046;-80
2021/12/27 02:49:14;;;;;;;24.83;15.77;;;;;;;;;;4995091;28;20425;-80
2021/12/27 02:51:40;;;;;;;22.77;15.23;;;;;;;;;;5002548;28;20509;-82
2021/12/27 02:54:06;;;;;;;21.35;15.35;;;;;;;;;;5005280;28;20038;-81
2021/12/27 02:56:33;;;;;;;24.13;14.02;;;;;;;;;;5006825;28;20045;-81
2021/12/27 02:58:59;;;;;;;22.95;15.73;;;;;;;;;;5010434;28;20497;-81
2021/12/27 03:01:26;;;;;;;20.13;13.60;;;;;;;;;;5022197;28;20041;-82
2021/12/27 03:03:53;;;;;;;23.38;16.52;;;;;;;;;;5010167;28;20082;-82
2021/12/27 03:06:19;;;;;;;23.30;15.77;;;;;;;;;;5013114;28;20033;-81
2021/12/27 03:08:46;;;;;;;25.88;16.05;;;;;;;;;;5019291;28;20077;-80
2021/12/27 03:11:12;;;;;;;25.80;15.38;;;;;;;;;;5014760;28;20064;-82
2021/12/27 03:13:45;;;;;;;24.65;16.15;;;;;;;;;;5005048;28;20045;-81
2021/12/27 03:16:12;;;;;;;25.63;15.75;;;;;;;;;;5016213;28;20076;-82
2021/12/27 03:18:49;;;;;;;25.65;16.10;;;;;;;;;;5026298;28;20049;-81
2021/12/27 03:21:16;;;;;;;25.25;15.80;;;;;;;;;;5031086;28;20033;-81
2021/12/27 03:23:42;;;;;;;26.88;16.30;;;;;;;;;;5033061;28;20072;-81
2021/12/27 03:26:09;;;;;;;24.50;16.30;;;;;;;;;;5032095;28;20067;-82
2021/12/27 03:28:35;;;;;;;30.38;17.08;;;;;;;;;;5012246;28;20050;-81
2021/12/27 03:31:02;;;;;;;28.77;17.95;;;;;;;;;;5007156;28;20048;-81
2021/12/27 03:33:28;;;;;;;30.95;18.77;;;;;;;;;;5015990;28;20049;-80
2021/12/27 03:36:06;;;;;;;32.17;18.77;;;;;;;;;;5020679;28;20029;-81
2021/12/27 03:38:37;;;;;;;30.77;17.67;;;;;;;;;;5005193;28;20421;-81
2021/12/27 03:41:04;;;;;;;32.90;19.30;;;;;;;;;;5010023;28;20074;-80
2021/12/27 03:43:30;;;;;;;28.25;16.63;;;;;;;;;;5021109;28;20100;-81
2021/12/27 03:45:56;;;;;;;31.30;18.17;;;;;;;;;;5012871;28;20045;-81
2021/12/27 03:48:23;;;;;;;28.75;17.48;;;;;;;;;;5010861;28;20030;-81
2021/12/27 03:50:49;;;;;;;31.48;19.77;;;;;;;;;;5017115;28;20072;-81
2021/12/27 03:53:15;;;;;;;32.35;19.60;;;;;;;;;;5024757;28;20045;-81
2021/12/27 03:55:41;;;;;;;33.38;19.10;;;;;;;;;;5013629;28;20128;-82
2021/12/27 03:58:22;;;;;;;28.02;18.73;;;;;;;;;;5008521;28;20462;-82
2021/12/27 04:03:16;;;;;;;27.98;17.67;;;;;;;;;;5008170;28;20049;-81
2021/12/27 04:05:42;;;;;;;34.70;18.95;;;;;;;;;;5021134;28;20057;-81
2021/12/27 04:08:09;;;;;;;29.85;17.95;;;;;;;;;;5018395;28;20030;-82
2021/12/27 04:10:39;;;;;;;30.23;17.58;;;;;;;;;;5001982;28;20077;-81
2021/12/27 04:13:05;;;;;;;30.17;18.13;;;;;;;;;;5027713;28;20038;-82
2021/12/27 04:15:32;;;;;;;32.35;19.25;;;;;;;;;;5009731;28;20045;-81
2021/12/27 04:17:58;;;;;;;31.85;18.23;;;;;;;;;;5008441;28;20045;-82
2021/12/27 04:20:24;;;;;;;31.35;19.02;;;;;;;;;;5022586;28;20393;-81
2021/12/27 04:22:51;;;;;;;31.95;17.75;;;;;;;;;;5004990;28;20034;-81
2021/12/27 04:25:17;;;;;;;30.42;17.35;;;;;;;;;;5016278;28;20033;-81
2021/12/27 04:27:44;;;;;;;32.75;19.33;;;;;;;;;;5034016;28;20093;-80
2021/12/27 04:30:10;;;;;;;31.50;18.60;;;;;;;;;;5035568;28;20096;-81
2021/12/27 04:32:36;;;;;;;35.38;20.27;;;;;;;;;;5017082;28;20049;-81
2021/12/27 04:35:03;;;;;;;33.35;19.17;;;;;;;;;;4997104;28;20037;-81
2021/12/27 04:37:29;;;;;;;33.35;19.88;;;;;;;;;;5012212;28;20133;-82
2021/12/27 04:39:56;;;;;;;30.35;18.38;;;;;;;;;;5004010;28;20056;-81
2021/12/27 04:42:22;;;;;;;38.65;20.27;;;;;;;;;;5006741;28;20046;-82
2021/12/27 04:44:48;;;;;;;33.80;19.52;;;;;;;;;;5010026;28;20742;-81
2021/12/27 04:47:16;;;;;;;30.13;18.48;;;;;;;;;;5006194;28;20068;-81
2021/12/27 04:49:43;;;;;;;29.92;18.67;;;;;;;;;;5009247;28;20038;-81
2021/12/27 04:52:10;;;;;;;29.88;18.17;;;;;;;;;;5007400;28;20134;-80
2021/12/27 04:54:36;;;;;;;32.88;19.63;;;;;;;;;;5009871;28;20148;-80
2021/12/27 04:57:03;;;;;;;26.40;18.17;;;;;;;;;;5030461;28;20053;-81
2021/12/27 04:59:29;;;;;;;29.73;17.65;;;;;;;;;;5020229;28;20508;-81
2021/12/27 05:01:56;;;;;;;32.20;19.58;;;;;;;;;;4989955;28;20448;-82
2021/12/27 05:04:23;;;;;;;30.52;19.50;;;;;;;;;;5007689;28;20529;-83
2021/12/27 05:06:49;;;;;;;30.15;18.85;;;;;;;;;;4983597;28;20054;-82
2021/12/27 05:09:15;;;;;;;27.58;18.55;;;;;;;;;;4988030;28;20583;-81
2021/12/27 05:11:41;;;;;;;34.40;18.98;;;;;;;;;;5004811;28;20061;-83
2021/12/27 05:14:07;;;;;;;33.30;19.20;;;;;;;;;;5005967;28;20038;-81
2021/12/27 05:16:34;;;;;;;31.08;19.73;;;;;;;;;;5018402;28;20041;-82
2021/12/27 05:19:00;;;;;;;33.33;19.30;;;;;;;;;;4995521;28;20083;-82
2021/12/27 05:21:26;;;;;;;35.05;19.92;;;;;;;;;;5005445;28;20037;-81
2021/12/27 05:23:52;;;;;;;33.97;20.27;;;;;;;;;;5004089;28;20521;-81
2021/12/27 05:26:18;;;;;;;38.38;21.15;;;;;;;;;;4997968;28;20382;-81
2021/12/27 05:28:44;;;;;;;35.45;20.60;;;;;;;;;;5014504;28;20042;-81
2021/12/27 05:31:11;;;;;;;38.28;22.58;;;;;;;;;;5007533;28;20069;-83
2021/12/27 05:33:37;;;;;;;38.03;22.25;;;;;;;;;;4989278;28;20489;-82
2021/12/27 05:36:04;;;;;;;34.97;20.73;;;;;;;;;;4999817;28;20486;-81
2021/12/27 05:38:30;;;;;;;34.90;20.25;;;;;;;;;;5018374;28;20061;-80
2021/12/27 05:40:56;;;;;;;35.58;20.73;;;;;;;;;;5002996;28;20069;-80
2021/12/27 05:43:23;;;;;;;34.67;21.63;;;;;;;;;;5005891;28;20046;-83
2021/12/27 05:45:50;;;;;;;34.38;20.58;;;;;;;;;;4993827;28;20391;-83
2021/12/27 05:48:16;;;;;;;37.17;21.25;;;;;;;;;;5002907;28;20104;-82
2021/12/27 05:50:43;;;;;;;40.40;21.42;;;;;;;;;;5006494;28;20042;-82
2021/12/27 05:53:09;;;;;;;34.55;20.20;;;;;;;;;;5005425;28;20117;-82
2021/12/27 05:55:35;;;;;;;33.92;21.73;;;;;;;;;;4991720;28;20053;-81
2021/12/27 05:58:02;;;;;;;34.60;21.00;;;;;;;;;;5007078;28;20485;-81
2021/12/27 06:00:28;;;;;;;32.80;20.42;;;;;;;;;;5014731;28;20046;-81
2021/12/27 06:02:55;;;;;;;31.90;19.20;;;;;;;;;;5000483;28;20505;-81
2021/12/27 06:05:21;;;;;;;31.10;20.13;;;;;;;;;;5009876;28;20501;-81
2021/12/27 06:07:48;;;;;;;33.95;20.27;;;;;;;;;;5008843;28;20494;-82
2021/12/27 06:10:14;;;;;;;31.77;20.20;;;;;;;;;;5000108;28;20050;-81
2021/12/27 06:12:40;;;;;;;36.65;20.58;;;;;;;;;;4990619;28;20038;-81
2021/12/27 06:15:07;;;;;;;29.35;20.38;;;;;;;;;;5003630;28;20121;-82
2021/12/27 06:17:34;;;;;;;31.80;19.90;;;;;;;;;;5016591;28;20041;-80
2021/12/27 06:20:00;;;;;;;32.13;20.13;;;;;;;;;;5022268;28;20034;-79
2021/12/27 06:22:28;;;;;;;32.47;20.60;;;;;;;;;;5025592;28;20076;-80
2021/12/27 06:24:59;;;;;;;34.78;20.58;;;;;;;;;;5016959;28;20034;-80
2021/12/27 06:27:25;;;;;;;34.50;20.88;;;;;;;;;;5051084;28;20064;-80
2021/12/27 06:29:53;;;;;;;29.65;19.33;;;;;;;;;;5045137;28;20057;-82
2021/12/27 06:32:20;;;;;;;32.20;20.17;;;;;;;;;;5027730;28;20050;-81
2021/12/27 06:34:46;;;;;;;36.05;21.70;;;;;;;;;;5026986;28;20088;-81
2021/12/27 06:37:12;;;;;;;36.00;21.38;;;;;;;;;;5005862;28;20548;-81
2021/12/27 06:39:38;;;;;;;36.63;22.60;;;;;;;;;;4991737;28;20087;-81
2021/12/27 06:42:05;;;;;;;35.20;21.73;;;;;;;;;;4990337;28;20034;-81
2021/12/27 06:44:32;;;;;;;32.28;20.50;;;;;;;;;;5011714;28;20037;-82
2021/12/27 06:46:59;;;;;;;32.42;20.45;;;;;;;;;;5028985;28;20140;-82
2021/12/27 06:49:27;;;;;;;36.58;21.60;;;;;;;;;;5028479;28;20587;-82
2021/12/27 06:51:53;;;;;;;36.22;22.52;;;;;;;;;;5025456;28;20493;-81
2021/12/27 06:54:19;;;;;;;32.95;20.27;;;;;;;;;;5023991;28;20502;-81
2021/12/27 06:56:45;;;;;;;35.28;21.42;;;;;;;;;;5029415;28;20041;-81
2021/12/27 06:59:13;;;;;;;39.17;21.73;;;;;;;;;;5026256;28;20131;-81
2021/12/27 07:01:39;;;;;;;34.15;20.48;;;;;;;;;;5027697;28;20065;-82
2021/12/27 07:04:05;;;;;;;36.05;21.55;;;;;;;;;;5014889;28;20510;-82
2021/12/27 07:06:31;;;;;;;37.85;22.05;;;;;;;;;;5027592;28;20509;-82
2021/12/27 07:08:57;;;;;;;39.53;23.30;;;;;;;;;;5019228;28;20408;-82
2021/12/27 07:11:23;;;;;;;39.33;22.20;;;;;;;;;;5007431;28;20042;-83
2021/12/27 07:13:49;;;;;;;38.55;22.80;;;;;;;;;;5009075;28;20034;-83
2021/12/27 07:16:16;;;;;;;44.10;23.73;;;;;;;;;;4988848;28;20053;-83
2021/12/27 07:18:43;;;;;;;36.30;22.35;;;;;;;;;;5008620;28;20647;-83
2021/12/27 07:21:09;;;;;;;46.45;24.08;;;;;;;;;;5021066;28;20092;-82
2021/12/27 07:23:35;;;;;;;40.63;23.10;;;;;;;;;;5030205;28;20673;-82
2021/12/27 07:26:01;;;;;;;44.13;21.85;;;;;;;;;;5013306;28;20056;-83
2021/12/27 07:28:28;;;;;;;41.55;22.23;;;;;;;;;;5010912;28;20042;-83
2021/12/27 07:30:54;;;;;;;47.20;25.10;;;;;;;;;;5010329;28;20054;-82
2021/12/27 07:33:20;;;;;;;46.70;25.35;;;;;;;;;;5007461;28;20482;-83
2021/12/27 07:35:47;;;;;;;42.65;22.95;;;;;;;;;;5011724;28;20121;-83
2021/12/27 07:38:14;;;;;;;44.58;23.60;;;;;;;;;;5007372;28;20604;-82
2021/12/27 07:40:40;;;;;;;44.90;23.90;;;;;;;;;;5010485;28;20042;-82
2021/12/27 07:43:09;;;;;;;45.20;24.27;;;;;;;;;;5005585;28;20056;-82
2021/12/27 07:45:35;;;;;;;46.75;24.65;;;;;;;;;;5008955;28;20136;-83
2021/12/27 07:48:01;;;;;;;50.03;27.52;;;;;;;;;;5006635;28;20104;-83
2021/12/27 07:50:28;;;;;;;55.58;27.13;;;;;;;;;;5020819;28;20053;-82
2021/12/27 07:52:55;;;;;;;57.00;27.85;;;;;;;;;;5028173;28;20458;-83
2021/12/27 07:55:21;;;;;;;60.67;29.48;;;;;;;;;;5016322;28;20038;-84
2021/12/27 07:57:47;;;;;;;67.30;31.08;;;;;;;;;;5027836;28;20030;-83
2021/12/27 08:00:14;;;;;;;57.92;29.95;;;;;;;;;;5031523;28;20049;-83
2021/12/27 08:02:40;;;;;;;56.70;28.92;;;;;;;;;;5016440;28;20077;-83
2021/12/27 08:05:06;;;;;;;63.20;31.60;;;;;;;;;;5004839;28;20104;-82
2021/12/27 08:07:32;;;;;;;67.25;31.85;;;;;;;;;;5007485;28;20568;-82
2021/12/27 08:09:59;;;;;;;66.63;32.28;;;;;;;;;;5019282;28;20052;-82
2021/12/27 08:12:25;;;;;;;66.40;30.48;;;;;;;;;;5025934;28;20453;-81
2021/12/27 08:14:51;;;;;;;68.43;33.13;;;;;;;;;;5018398;28;20041;-82
2021/12/27 08:17:17;;;;;;;65.60;31.23;;;;;;;;;;5006715;28;20050;-83
2021/12/27 08:19:45;;;;;;;64.18;31.00;;;;;;;;;;5020157;28;20048;-82
2021/12/27 08:22:11;;;;;;;62.47;30.15;;;;;;;;;;5025067;28;20053;-82
2021/12/27 08:24:37;;;;;;;68.72;31.02;;;;;;;;;;5033219;28;20049;-82
2021/12/27 08:27:04;;;;;;;63.80;30.02;;;;;;;;;;5033376;28;20390;-83
2021/12/27 08:29:30;;;;;;;67.70;29.88;;;;;;;;;;5028436;28;20136;-83
2021/12/27 08:31:56;;;;;;;62.30;29.23;;;;;;;;;;5011540;28;20050;-83
2021/12/27 08:34:27;;;;;;;62.20;29.77;;;;;;;;;;4986932;28;20056;-83
2021/12/27 08:36:53;;;;;;;64.75;29.45;;;;;;;;;;4988681;28;20038;-83
2021/12/27 08:39:20;;;;;;;66.05;29.95;;;;;;;;;;5004079;28;20497;-83
2021/12/27 08:41:46;;;;;;;57.33;28.33;;;;;;;;;;5006429;28;20081;-82
2021/12/27 08:44:12;;;;;;;60.47;29.65;;;;;;;;;;5011819;28;20517;-83
2021/12/27 08:46:38;;;;;;;57.20;29.00;;;;;;;;;;5026214;28;20041;-83
2021/12/27 08:49:04;;;;;;;61.42;29.65;;;;;;;;;;5004669;28;20050;-83
2021/12/27 08:51:31;;;;;;;78.45;31.35;;;;;;;;;;4988232;28;20077;-83
2021/12/27 08:53:57;;;;;;;59.90;29.40;;;;;;;;;;5006184;28;20076;-82
2021/12/27 08:56:23;;;;;;;62.28;29.33;;;;;;;;;;5005338;28;20494;-83
2021/12/27 08:58:49;;;;;;;56.20;28.88;;;;;;;;;;5006131;28;20485;-82
2021/12/27 09:01:16;;;;;;;51.13;29.33;;;;;;;;;;5003274;28;20042;-83
2021/12/27 09:03:42;;;;;;;60.85;29.58;;;;;;;;;;5015076;28;20104;-82
2021/12/27 09:06:09;;;;;;;61.35;29.80;;;;;;;;;;5023249;28;20053;-83
2021/12/27 09:08:40;;;;;;;58.35;29.55;;;;;;;;;;5006418;28;20096;-83
2021/12/27 09:11:07;;;;;;;56.30;29.48;;;;;;;;;;5003662;28;20115;-83
2021/12/27 09:13:36;;;;;;;58.40;29.70;;;;;;;;;;4994745;28;20053;-83
2021/12/27 09:16:02;;;;;;;61.67;29.58;;;;;;;;;;5026016;28;20505;-82
2021/12/27 09:18:29;;;;;;;65.38;32.00;;;;;;;;;;5014985;28;20045;-82
2021/12/27 09:20:55;;;;;;;62.92;29.70;;;;;;;;;;5006142;28;20147;-82
2021/12/27 09:23:21;;;;;;;58.53;29.90;;;;;;;;;;5003955;28;20057;-82
2021/12/27 09:25:47;;;;;;;56.95;30.17;;;;;;;;;;5021316;28;20049;-83
2021/12/27 09:28:14;;;;;;;57.95;29.67;;;;;;;;;;5025324;28;20049;-83
2021/12/27 09:30:40;;;;;;;68.30;34.22;;;;;;;;;;5022082;28;20536;-84
2021/12/27 09:33:07;;;;;;;64.55;31.00;;;;;;;;;;4981177;28;20141;-83
2021/12/27 09:35:34;;;;;;;60.28;29.10;;;;;;;;;;5007815;28;20046;-83
2021/12/27 09:38:00;;;;;;;61.13;29.20;;;;;;;;;;5009862;28;20041;-83
2021/12/27 09:40:26;;;;;;;56.97;28.67;;;;;;;;;;5009506;28;20049;-82
2021/12/27 09:42:53;;;;;;;56.88;28.75;;;;;;;;;;5012448;28;20418;-82
2021/12/27 09:45:20;;;;;;;58.05;27.15;;;;;;;;;;5028013;28;20167;-83
2021/12/27 09:47:48;;;;;;;61.38;30.35;;;;;;;;;;5013400;28;20042;-83
2021/12/27 09:50:18;;;;;;;61.80;32.13;;;;;;;;;;5006122;28;20041;-82
2021/12/27 09:52:44;;;;;;;57.13;29.33;;;;;;;;;;5011360;28;20478;-83
2021/12/27 09:55:11;;;;;;;60.65;28.17;;;;;;;;;;5006593;28;20038;-83
2021/12/27 09:57:37;;;;;;;58.58;28.58;;;;;;;;;;5007307;28;20042;-83
2021/12/27 10:00:07;;;;;;;51.63;26.55;;;;;;;;;;5009381;28;20057;-83
2021/12/27 10:02:34;;;;;;;59.80;29.42;;;;;;;;;;5013323;28;20053;-84
2021/12/27 10:05:01;;;;;;;56.58;28.33;;;;;;;;;;5009178;28;20088;-84
2021/12/27 10:07:29;;;;;;;52.97;28.27;;;;;;;;;;5006110;28;20049;-84
2021/12/27 10:09:58;;;;;;;50.67;29.30;;;;;;;;;;5012764;28;20504;-85
2021/12/27 10:12:24;;;;;;;56.70;29.75;;;;;;;;;;5008517;28;20053;-84
2021/12/27 10:14:54;;;;;;;51.35;28.55;;;;;;;;;;5024642;28;20075;-84
2021/12/27 10:17:23;;;;;;;50.80;28.33;;;;;;;;;;5017765;28;20045;-84
2021/12/27 10:19:49;;;;;;;49.80;29.33;;;;;;;;;;5048920;28;20045;-84
2021/12/27 10:22:15;;;;;;;52.03;27.55;;;;;;;;;;5042539;28;20040;-83
2021/12/27 10:24:42;;;;;;;54.03;28.75;;;;;;;;;;5018938;28;20069;-85
2021/12/27 10:27:08;;;;;;;49.13;26.70;;;;;;;;;;5012472;28;20049;-86
2021/12/27 10:29:39;;;;;;;51.50;28.70;;;;;;;;;;5010433;28;20050;-84
2021/12/27 10:32:10;;;;;;;52.53;29.30;;;;;;;;;;5018865;28;20135;-85
2021/12/27 10:34:45;;;;;;;54.28;29.23;;;;;;;;;;5008926;28;20593;-85
2021/12/27 10:37:13;;;;;;;46.05;26.77;;;;;;;;;;5003839;28;20050;-84
2021/12/27 10:39:43;;;;;;;52.58;26.55;;;;;;;;;;5009783;28;20407;-85
2021/12/27 10:42:11;;;;;;;60.10;30.55;;;;;;;;;;5017580;28;20042;-85
2021/12/27 10:44:37;;;;;;;53.72;28.65;;;;;;;;;;4996363;28;20485;-84
2021/12/27 10:47:23;;;;;;;50.95;27.30;;;;;;;;;;5007998;28;20457;-84
2021/12/27 10:49:50;;;;;;;51.63;27.58;;;;;;;;;;5006895;28;20045;-84
2021/12/27 10:52:16;;;;;;;65.32;28.80;;;;;;;;;;5012033;28;20038;-82
2021/12/27 10:54:42;;;;;;;50.72;27.65;;;;;;;;;;5021895;28;20052;-83
2021/12/27 10:57:08;;;;;;;52.40;28.52;;;;;;;;;;5029723;28;20049;-84
2021/12/27 10:59:34;;;;;;;68.32;30.20;;;;;;;;;;5031796;28;20105;-84
2021/12/27 11:02:16;;;;;;;57.78;28.40;;;;;;;;;;5022989;28;20064;-83
2021/12/27 11:04:43;;;;;;;53.40;28.60;;;;;;;;;;5008745;28;20041;-85
2021/12/27 11:07:09;;;;;;;62.05;29.85;;;;;;;;;;5003136;28;20045;-84
2021/12/27 11:09:36;;;;;;;61.88;30.73;;;;;;;;;;5006779;28;20041;-83
2021/12/27 11:12:02;;;;;;;77.05;37.72;;;;;;;;;;5006589;28;20128;-85
2021/12/27 11:14:28;;;;;;;73.28;34.58;;;;;;;;;;5004636;28;20073;-84
2021/12/27 11:16:55;;;;;;;71.88;33.30;;;;;;;;;;5012778;28;20493;-86
2021/12/27 11:19:21;;;;;;;66.25;33.53;;;;;;;;;;5021515;28;20041;-86
2021/12/27 11:21:49;;;;;;;67.05;35.08;;;;;;;;;;5007142;28;20406;-82
2021/12/27 11:24:15;;;;;;;83.63;39.50;;;;;;;;;;5007385;28;20143;-83
2021/12/27 11:26:43;;;;;;;79.53;38.38;;;;;;;;;;5022285;28;20042;-83
2021/12/27 11:29:12;;;;;;;68.05;33.08;;;;;;;;;;4995856;28;20045;-83
2021/12/27 11:31:39;;;;;;;76.18;35.55;;;;;;;;;;5027125;28;20061;-83
2021/12/27 11:34:08;;;;;;;73.15;36.42;;;;;;;;;;5021244;28;20498;-82
2021/12/27 11:36:39;;;;;;;69.43;34.85;;;;;;;;;;5017942;28;20108;-81
2021/12/27 11:39:34;;;;;;;69.88;33.67;;;;;;;;;;5025846;28;20501;-81
2021/12/27 11:42:08;;;;;;;68.85;34.08;;;;;;;;;;5013344;28;20053;-82
2021/12/27 11:44:37;;;;;;;60.83;32.75;;;;;;;;;;5025229;28;20108;-82
2021/12/27 11:47:04;;;;;;;65.45;32.25;;;;;;;;;;5006174;28;20042;-81
2021/12/27 11:49:49;;;;;;;63.55;31.00;;;;;;;;;;5018575;28;20067;-84
2021/12/27 11:52:15;;;;;;;;;;;;;;;;;;5014298;28;20045;-85
2021/12/27 11:54:49;;;;;;;64.93;32.25;;;;;;;;;;5013014;28;19921;-82
2021/12/27 11:57:35;;;;;;;66.65;31.08;;;;;;;;;;5009829;28;20057;-83
2021/12/27 12:00:15;;;;;;;72.75;33.03;;;;;;;;;;5010621;28;20076;-85
2021/12/27 12:02:41;;;;;;;71.53;33.35;;;;;;;;;;5034211;28;20045;-84
2021/12/27 12:05:07;;;;;;;73.53;32.22;;;;;;;;;;5023112;28;20072;-83
2021/12/27 12:07:33;;;;;;;78.00;33.60;;;;;;;;;;5016206;28;20044;-84
2021/12/27 12:10:00;;;;;;;73.97;33.97;;;;;;;;;;5004985;28;20041;-83
2021/12/27 12:12:28;;;;;;;71.68;34.47;;;;;;;;;;5009266;28;20080;-84
2021/12/27 12:14:58;;;;;;;73.43;33.60;;;;;;;;;;5023257;28;20040;-84
2021/12/27 12:17:54;;;;;;;67.32;32.22;;;;;;;;;;5025379;28;20052;-84
2021/12/27 12:20:27;;;;;;;70.72;31.60;;;;;;;;;;5021871;28;20512;-84
2021/12/27 12:23:09;;;;;;;89.75;37.67;;;;;;;;;;5038965;28;20119;-85
2021/12/27 12:25:42;;;;;;;78.35;36.17;;;;;;;;;;5038316;28;20053;-86
2021/12/27 12:28:10;;;;;;;91.90;39.63;;;;;;;;;;5025741;28;20050;-84
2021/12/27 12:30:41;;;;;;;96.45;42.58;;;;;;;;;;5011002;28;20093;-84
2021/12/27 12:33:10;;;;;;;90.82;40.85;;;;;;;;;;5016981;28;20053;-84
2021/12/27 12:35:41;;;;;;;91.18;44.33;;;;;;;;;;5007160;28;20385;-84
2021/12/27 12:38:10;;;;;;;94.70;41.05;;;;;;;;;;5007176;28;20251;-84
2021/12/27 12:40:36;;;;;;;95.80;44.65;;;;;;;;;;5013300;28;20473;-84
2021/12/27 12:43:02;;;;;;;88.60;39.85;;;;;;;;;;5013159;28;20053;-85
2021/12/27 12:45:32;;;;;;;93.55;41.60;;;;;;;;;;5014279;28;20060;-84
2021/12/27 12:47:59;;;;;;;102.63;42.50;;;;;;;;;;5026454;28;20128;-83
2021/12/27 12:50:25;;;;;;;104.78;39.55;;;;;;;;;;5026576;28;20518;-83
2021/12/27 12:52:59;;;;;;;100.90;42.58;;;;;;;;;;5027430;28;20046;-83
2021/12/27 12:55:27;;;;;;;109.07;44.10;;;;;;;;;;4997865;28;20614;-84
2021/12/27 12:57:56;;;;;;;98.68;41.47;;;;;;;;;;5012669;28;20433;-83
2021/12/27 13:00:24;;;;;;;88.68;40.15;;;;;;;;;;5010796;28;20046;-84
2021/12/27 13:02:50;;;;;;;91.18;40.00;;;;;;;;;;5008975;28;20072;-84
2021/12/27 13:05:18;;;;;;;98.07;43.05;;;;;;;;;;5014666;28;20056;-84
2021/12/27 13:07:49;;;;;;;90.47;38.80;;;;;;;;;;5004858;28;20054;-84
2021/12/27 13:10:24;;;;;;;92.28;37.42;;;;;;;;;;5017430;28;20049;-85
2021/12/27 13:12:58;;;;;;;83.80;37.80;;;;;;;;;;5026343;28;20049;-84
2021/12/27 13:15:30;;;;;;;88.53;37.05;;;;;;;;;;5027447;28;20117;-84
2021/12/27 13:18:02;;;;;;;91.97;39.17;;;;;;;;;;5010463;28;20402;-83
2021/12/27 13:20:30;;;;;;;98.15;37.95;;;;;;;;;;5004786;28;20046;-82
2021/12/27 13:22:57;;;;;;;87.95;38.08;;;;;;;;;;5012373;28;20045;-82
2021/12/27 13:25:29;;;;;;;85.18;36.45;;;;;;;;;;5014572;28;20069;-83
2021/12/27 13:28:13;;;;;;;90.07;38.08;;;;;;;;;;5007405;28;20053;-83
2021/12/27 13:30:47;;;;;;;93.57;37.33;;;;;;;;;;4997617;28;20406;-83
2021/12/27 13:33:14;;;;;;;101.60;39.63;;;;;;;;;;4989242;28;20406;-83
2021/12/27 13:35:43;;;;;;;102.38;42.42;;;;;;;;;;4963553;28;20045;-82
2021/12/27 13:38:16;;;;;;;96.60;39.83;;;;;;;;;;4973719;28;20687;-82
2021/12/27 13:40:47;;;;;;;92.87;42.27;;;;;;;;;;5004011;28;20132;-84
2021/12/27 13:43:13;;;;;;;99.90;46.17;;;;;;;;;;4987207;28;20062;-83
2021/12/27 13:45:41;;;;;;;91.40;40.05;;;;;;;;;;4994857;28;20035;-82
2021/12/27 13:48:09;;;;;;;100.03;42.42;;;;;;;;;;4969781;28;20050;-82
2021/12/27 13:50:36;;;;;;;93.95;40.50;;;;;;;;;;4987736;28;20044;-83
2021/12/27 13:53:23;;;;;;;100.13;42.65;;;;;;;;;;4996425;28;20053;-83
2021/12/27 13:55:49;;;;;;;96.43;42.15;;;;;;;;;;4983903;28;20048;-83
2021/12/27 13:58:24;;;;;;;99.25;43.88;;;;;;;;;;5002059;28;20039;-82
2021/12/27 14:00:55;;;;;;;116.85;42.42;;;;;;;;;;4967439;28;20055;-83
2021/12/27 14:03:29;;;;;;;117.15;46.63;;;;;;;;;;4986236;28;20046;-83
2021/12/27 14:05:56;;;;;;;114.80;46.28;;;;;;;;;;4984005;28;20477;-81
2021/12/27 14:08:27;;;;;;;114.68;45.13;;;;;;;;;;4983238;28;20093;-82
2021/12/27 14:11:07;;;;;;;107.63;44.20;;;;;;;;;;4985161;28;20047;-82
2021/12/27 14:13:55;;;;;;;116.82;46.47;;;;;;;;;;4998542;28;20045;-83
2021/12/27 14:16:23;;;;;;;111.13;46.42;;;;;;;;;;4969552;28;20038;-83
2021/12/27 14:19:08;;;;;;;112.50;44.28;;;;;;;;;;4978284;28;20082;-83
2021/12/27 14:21:53;;;;;;;100.05;41.47;;;;;;;;;;4986362;28;20105;-82
2021/12/27 14:24:27;;;;;;;131.15;52.60;;;;;;;;;;4951335;28;20489;-82
2021/12/27 14:26:54;;;;;;;115.35;44.30;;;;;;;;;;4984172;28;20034;-82